createdAt,value
2022-12-19T00:01:18.775Z,22.67
2022-12-19T00:03:54.844Z,26.10
2022-12-19T00:06:22.045Z,26.50
2022-12-19T00:08:50.197Z,25.50
2022-12-19T00:11:18.592Z,26.10
2022-12-19T00:13:45.516Z,25.63
2022-12-19T00:16:19.053Z,24.73
2022-12-19T00:18:46.728Z,27.53
2022-12-19T00:21:15.706Z,24.70
2022-12-19T00:23:42.924Z,29.43
2022-12-19T00:26:12.524Z,26.50
2022-12-19T00:28:39.493Z,27.93
2022-12-19T00:31:06.574Z,28.23
2022-12-19T00:33:34.424Z,26.50
2022-12-19T00:36:06.599Z,29.33
2022-12-19T00:38:33.399Z,27.03
2022-12-19T00:41:20.453Z,29.90
2022-12-19T00:44:07.278Z,27.57
2022-12-19T00:46:35.139Z,29.13
2022-12-19T00:49:02.027Z,26.87
2022-12-19T00:51:31.253Z,26.73
2022-12-19T00:53:58.279Z,26.00
2022-12-19T00:56:28.454Z,29.97
2022-12-19T00:58:55.504Z,24.10
2022-12-19T01:01:25.547Z,29.37
2022-12-19T01:04:27.065Z,26.83
2022-12-19T01:06:38.679Z,25.50
2022-12-19T01:09:05.719Z,27.83
2022-12-19T01:11:50.788Z,31.03
2022-12-19T01:14:22.520Z,28.03
2022-12-19T01:16:50.084Z,26.73
2022-12-19T01:19:16.694Z,28.33
2022-12-19T01:21:43.304Z,28.57
2022-12-19T01:24:10.709Z,26.50
2022-12-19T01:26:37.681Z,29.73
2022-12-19T01:29:05.344Z,23.97
2022-12-19T01:31:33.192Z,25.80
2022-12-19T01:34:00.519Z,27.53
2022-12-19T01:36:28.476Z,26.47
2022-12-19T01:38:56.720Z,28.57
2022-12-19T01:41:23.596Z,26.03
2022-12-19T01:44:08.741Z,25.27
2022-12-19T01:46:44.715Z,25.20
2022-12-19T01:49:17.700Z,23.50
2022-12-19T01:51:48.577Z,24.60
2022-12-19T01:54:22.406Z,24.47
2022-12-19T01:56:52.172Z,27.17
2022-12-19T01:59:31.536Z,22.70
2022-12-19T02:02:10.058Z,22.83
2022-12-19T02:04:36.937Z,25.23
2022-12-19T02:07:15.181Z,23.17
2022-12-19T02:09:44.782Z,25.70
2022-12-19T02:12:11.427Z,26.83
2022-12-19T02:14:38.544Z,26.77
2022-12-19T02:17:26.547Z,24.27
2022-12-19T02:20:05.247Z,22.67
2022-12-19T02:22:54.798Z,24.90
2022-12-19T02:25:38.180Z,23.53
2022-12-19T02:28:20.174Z,24.57
2022-12-19T02:30:56.175Z,25.40
2022-12-19T02:33:35.971Z,24.23
2022-12-19T02:36:12.131Z,25.50
2022-12-19T02:38:44.011Z,26.07
2022-12-19T02:41:15.902Z,24.83
2022-12-19T02:43:45.284Z,22.90
2022-12-19T02:46:13.884Z,24.60
2022-12-19T02:48:41.463Z,24.17
2022-12-19T02:51:08.278Z,24.20
2022-12-19T02:53:35.988Z,24.00
2022-12-19T02:56:21.431Z,22.07
2022-12-19T02:59:11.294Z,22.80
2022-12-19T03:01:45.466Z,24.43
2022-12-19T03:04:21.153Z,22.83
2022-12-19T03:06:53.535Z,22.63
2022-12-19T03:09:29.144Z,25.77
2022-12-19T03:12:11.640Z,21.67
2022-12-19T03:14:41.159Z,21.57
2022-12-19T03:17:08.327Z,22.53
2022-12-19T03:19:35.841Z,20.20
2022-12-19T03:22:02.397Z,21.93
2022-12-19T03:24:29.192Z,23.67
2022-12-19T03:27:11.693Z,21.40
2022-12-19T03:29:39.257Z,25.73
2022-12-19T03:32:09.784Z,21.07
2022-12-19T03:35:06.213Z,23.70
2022-12-19T03:37:35.640Z,21.20
2022-12-19T03:40:05.445Z,21.03
2022-12-19T03:42:52.160Z,23.03
2022-12-19T03:45:27.209Z,23.97
2022-12-19T03:47:59.716Z,22.47
2022-12-19T03:50:31.107Z,23.80
2022-12-19T03:53:20.768Z,18.60
2022-12-19T03:55:58.607Z,25.37
2022-12-19T03:58:29.254Z,22.30
2022-12-19T04:00:56.084Z,22.37
2022-12-19T04:03:23.523Z,26.90
2022-12-19T04:05:50.793Z,22.63
2022-12-19T04:08:17.846Z,26.00
2022-12-19T04:10:50.077Z,23.17
2022-12-19T04:13:20.735Z,23.70
2022-12-19T04:16:00.599Z,22.53
2022-12-19T04:18:27.528Z,22.90
2022-12-19T04:21:02.347Z,22.60
2022-12-19T04:23:32.483Z,23.07
2022-12-19T04:26:02.194Z,26.13
2022-12-19T04:28:40.337Z,19.70
2022-12-19T04:31:07.349Z,20.30
2022-12-19T04:33:34.173Z,24.67
2022-12-19T04:36:00.758Z,22.87
2022-12-19T04:38:27.427Z,24.77
2022-12-19T04:40:54.037Z,23.80
2022-12-19T04:43:20.573Z,23.60
2022-12-19T04:45:47.160Z,28.33
2022-12-19T04:48:15.486Z,24.57
2022-12-19T04:50:42.110Z,24.13
2022-12-19T04:53:08.989Z,25.87
2022-12-19T04:55:36.187Z,22.00
2022-12-19T04:58:05.365Z,23.70
2022-12-19T05:00:32.204Z,20.33
2022-12-19T05:02:58.786Z,23.53
2022-12-19T05:05:25.568Z,26.33
2022-12-19T05:07:52.362Z,23.80
2022-12-19T05:10:18.996Z,25.50
2022-12-19T05:12:45.518Z,22.73
2022-12-19T05:15:12.127Z,24.57
2022-12-19T05:17:38.770Z,26.67
2022-12-19T05:20:06.173Z,28.83
2022-12-19T05:22:32.846Z,27.90
2022-12-19T05:24:59.381Z,25.33
2022-12-19T05:27:25.886Z,26.87
2022-12-19T05:29:52.465Z,22.80
2022-12-19T05:32:18.952Z,25.20
2022-12-19T05:34:45.580Z,26.33
2022-12-19T05:37:12.193Z,22.00
2022-12-19T05:39:38.673Z,25.77
2022-12-19T05:42:08.467Z,24.03
2022-12-19T05:44:38.607Z,24.33
2022-12-19T05:47:05.637Z,24.13
2022-12-19T05:49:32.171Z,25.37
2022-12-19T05:51:58.653Z,26.47
2022-12-19T05:54:26.183Z,21.37
2022-12-19T05:56:52.713Z,21.33
2022-12-19T05:59:19.504Z,24.40
2022-12-19T06:01:46.322Z,23.20
2022-12-19T06:04:13.059Z,23.80
2022-12-19T06:06:39.821Z,21.30
2022-12-19T06:09:06.426Z,26.57
2022-12-19T06:11:32.965Z,21.47
2022-12-19T06:13:59.566Z,22.53
2022-12-19T06:16:26.349Z,22.97
2022-12-19T06:18:52.917Z,19.23
2022-12-19T06:21:22.228Z,20.63
2022-12-19T06:23:49.627Z,20.03
2022-12-19T06:26:19.881Z,22.37
2022-12-19T06:28:48.346Z,20.03
2022-12-19T06:31:15.511Z,20.37
2022-12-19T06:33:42.167Z,18.97
2022-12-19T06:36:14.094Z,18.33
2022-12-19T06:38:40.691Z,18.63
2022-12-19T06:41:25.512Z,20.87
2022-12-19T06:43:53.840Z,19.20
2022-12-19T06:46:20.759Z,18.37
2022-12-19T06:48:47.392Z,20.23
2022-12-19T06:51:13.946Z,18.80
2022-12-19T06:53:40.553Z,19.37
2022-12-19T06:56:07.985Z,18.67
2022-12-19T06:58:34.872Z,17.87
2022-12-19T07:01:02.005Z,15.00
2022-12-19T07:03:43.999Z,17.97
2022-12-19T07:06:10.534Z,21.57
2022-12-19T07:08:37.170Z,18.33
2022-12-19T07:11:03.840Z,21.40
2022-12-19T07:13:30.650Z,19.60
2022-12-19T07:16:01.674Z,20.47
2022-12-19T07:18:30.614Z,21.17
2022-12-19T07:20:57.200Z,21.57
2022-12-19T07:23:23.894Z,18.47
2022-12-19T07:25:50.426Z,20.83
2022-12-19T07:28:17.434Z,18.67
2022-12-19T07:30:43.996Z,17.73
2022-12-19T07:33:11.877Z,19.27
2022-12-19T07:35:39.573Z,18.40
2022-12-19T07:38:07.251Z,17.57
2022-12-19T07:40:34.806Z,16.90
2022-12-19T07:43:02.282Z,17.47
2022-12-19T07:45:29.906Z,18.30
2022-12-19T07:47:56.611Z,18.07
2022-12-19T07:50:23.180Z,19.73
2022-12-19T07:52:49.717Z,20.77
2022-12-19T07:55:16.254Z,19.30
2022-12-19T07:57:43.695Z,17.77
2022-12-19T08:00:10.908Z,18.67
2022-12-19T08:02:37.711Z,19.00
2022-12-19T08:05:05.750Z,22.27
2022-12-19T08:07:33.739Z,18.90
2022-12-19T08:10:01.024Z,22.60
2022-12-19T08:12:27.542Z,17.07
2022-12-19T08:14:57.137Z,19.03
2022-12-19T08:17:24.165Z,21.23
2022-12-19T08:19:50.979Z,19.53
2022-12-19T08:22:17.556Z,19.00
2022-12-19T08:24:44.237Z,17.63
2022-12-19T08:27:10.905Z,19.77
2022-12-19T08:29:37.423Z,25.03
2022-12-19T08:32:04.039Z,19.60
2022-12-19T08:34:30.828Z,20.50
2022-12-19T08:36:57.428Z,19.57
2022-12-19T08:39:23.923Z,17.83
2022-12-19T08:41:50.489Z,20.67
2022-12-19T08:44:17.160Z,20.33
2022-12-19T08:46:49.722Z,19.23
2022-12-19T08:49:17.155Z,20.97
2022-12-19T08:51:43.700Z,19.73
2022-12-19T08:54:11.669Z,20.17
2022-12-19T08:56:43.639Z,19.33
2022-12-19T08:59:15.030Z,22.13
2022-12-19T09:01:48.170Z,18.80
2022-12-19T09:05:46.698Z,20.30
2022-12-19T09:07:01.655Z,20.40
2022-12-19T09:09:28.472Z,21.83
2022-12-19T09:11:55.050Z,18.97
2022-12-19T09:14:21.827Z,22.20
2022-12-19T09:16:48.433Z,19.80
2022-12-19T09:19:16.527Z,29.33
2022-12-19T09:21:43.870Z,18.10
2022-12-19T09:24:11.159Z,18.97
2022-12-19T09:26:39.347Z,20.97
2022-12-19T09:29:13.945Z,17.87
2022-12-19T09:31:48.137Z,19.60
2022-12-19T09:34:18.110Z,19.03
2022-12-19T09:36:48.780Z,20.30
2022-12-19T09:39:15.901Z,20.63
2022-12-19T09:41:42.552Z,20.70
2022-12-19T09:44:30.715Z,17.77
2022-12-19T09:47:05.401Z,15.77
2022-12-19T09:49:41.935Z,24.13
2022-12-19T09:52:19.014Z,17.80
2022-12-19T09:54:50.089Z,20.63
2022-12-19T09:57:21.050Z,18.87
2022-12-19T09:59:51.885Z,16.90
2022-12-19T10:02:33.685Z,18.90
2022-12-19T10:05:37.523Z,17.40
2022-12-19T10:08:10.393Z,16.73
2022-12-19T10:12:35.165Z,18.63
2022-12-19T10:13:29.096Z,18.07
2022-12-19T10:16:15.454Z,22.30
2022-12-19T10:18:56.998Z,19.60
2022-12-19T10:22:16.475Z,16.00
2022-12-19T10:24:59.559Z,16.97
2022-12-19T10:27:59.578Z,17.13
2022-12-19T10:30:29.087Z,17.53
2022-12-19T10:33:15.265Z,17.67
2022-12-19T10:35:54.334Z,17.77
2022-12-19T10:38:36.774Z,17.93
2022-12-19T10:41:19.890Z,17.57
2022-12-19T10:44:02.924Z,14.53
2022-12-19T10:46:38.433Z,16.30
2022-12-19T10:49:17.113Z,15.20
2022-12-19T10:52:00.261Z,17.83
2022-12-19T10:54:38.088Z,14.90
2022-12-19T10:57:24.642Z,16.63
2022-12-19T11:00:16.453Z,17.90
2022-12-19T11:02:46.088Z,16.73
2022-12-19T11:05:29.685Z,19.87
2022-12-19T11:08:08.683Z,16.47
2022-12-19T11:11:24.783Z,17.90
2022-12-19T11:17:45.688Z,16.53
2022-12-19T11:20:50.932Z,16.63
2022-12-19T11:27:59.136Z,15.67
2022-12-19T11:29:33.659Z,16.60
2022-12-19T11:30:36.477Z,15.80
2022-12-19T11:30:46.945Z,16.03
2022-12-19T11:33:18.973Z,21.03
2022-12-19T11:35:51.803Z,15.13
2022-12-19T11:38:45.919Z,16.17
2022-12-19T11:41:19.583Z,14.87
2022-12-19T11:44:03.496Z,17.57
2022-12-19T11:46:36.271Z,13.40
2022-12-19T11:49:09.054Z,14.73
2022-12-19T11:51:47.682Z,16.17
2022-12-19T11:54:32.689Z,15.97
2022-12-19T11:56:59.452Z,13.83
2022-12-19T11:59:31.900Z,13.90
2022-12-19T12:02:06.722Z,18.43
2022-12-19T12:05:15.022Z,15.27
2022-12-19T12:08:09.010Z,15.30
2022-12-19T12:17:24.616Z,16.90
2022-12-19T12:20:13.542Z,15.50
2022-12-19T12:27:44.977Z,14.30
2022-12-19T12:31:19.240Z,13.57
2022-12-19T12:32:03.193Z,13.37
2022-12-19T12:32:06.159Z,15.57
2022-12-19T12:35:13.743Z,13.20
2022-12-19T12:35:34.978Z,13.90
2022-12-19T12:35:35.106Z,14.37
2022-12-19T12:38:22.749Z,12.00
2022-12-19T12:40:50.732Z,10.87
2022-12-19T12:43:36.259Z,12.33
2022-12-19T12:46:12.471Z,11.60
2022-12-19T12:49:36.662Z,12.23
2022-12-19T12:52:05.657Z,13.67
2022-12-19T12:54:35.816Z,14.57
2022-12-19T12:57:02.841Z,11.80
2022-12-19T12:59:30.369Z,12.67
2022-12-19T13:02:07.851Z,11.63
2022-12-19T13:04:37.160Z,10.63
2022-12-19T13:07:15.990Z,11.67
2022-12-19T13:09:43.170Z,14.10
2022-12-19T13:12:46.272Z,10.83
2022-12-19T13:15:22.167Z,13.73
2022-12-19T13:17:48.634Z,10.40
2022-12-19T13:20:19.274Z,10.70
2022-12-19T13:22:59.277Z,11.37
2022-12-19T13:25:35.551Z,9.40
2022-12-19T13:28:02.136Z,11.17
2022-12-19T13:30:29.726Z,10.13
2022-12-19T13:32:56.428Z,12.83
2022-12-19T13:36:47.755Z,12.83
2022-12-19T13:39:55.756Z,10.93
2022-12-19T13:41:45.800Z,11.70
2022-12-19T13:44:12.498Z,11.90
2022-12-19T13:46:45.409Z,11.13
2022-12-19T13:49:19.596Z,10.03
2022-12-19T13:51:47.532Z,10.30
2022-12-19T13:54:19.855Z,8.90
2022-12-19T13:56:46.466Z,10.73
2022-12-19T13:59:13.127Z,9.90
2022-12-19T14:01:40.985Z,8.83
2022-12-19T14:04:25.608Z,8.90
2022-12-19T14:07:03.671Z,9.67
2022-12-19T14:11:27.890Z,8.47
2022-12-19T14:13:59.120Z,10.73
2022-12-19T14:15:39.549Z,9.77
2022-12-19T14:18:44.776Z,11.60
2022-12-19T14:22:07.404Z,9.37
2022-12-19T14:24:17.238Z,11.37
2022-12-19T14:28:18.039Z,10.37
2022-12-19T14:30:26.224Z,9.37
2022-12-19T14:33:44.324Z,8.10
2022-12-19T14:36:08.959Z,8.47
2022-12-19T14:39:26.639Z,10.33
2022-12-19T14:41:09.154Z,9.57
2022-12-19T14:43:56.491Z,8.93
2022-12-19T14:52:34.906Z,8.50
2022-12-19T14:54:13.173Z,10.17
2022-12-19T14:54:33.978Z,11.03
2022-12-19T14:56:16.019Z,10.27
2022-12-19T14:58:55.442Z,9.57
2022-12-19T15:01:28.501Z,8.67
2022-12-19T15:04:53.257Z,9.00
2022-12-19T15:07:08.623Z,8.13
2022-12-19T15:11:08.385Z,10.07
2022-12-19T15:14:55.375Z,10.10
2022-12-19T15:15:46.379Z,9.77
2022-12-19T15:18:28.365Z,10.40
2022-12-19T15:20:57.055Z,8.13
2022-12-19T15:23:24.557Z,10.63
2022-12-19T15:26:08.541Z,9.20
2022-12-19T15:28:44.194Z,11.53
2022-12-19T15:31:27.458Z,11.73
2022-12-19T15:36:41.407Z,11.60
2022-12-19T15:39:08.031Z,9.97
2022-12-19T15:41:34.851Z,8.20
2022-12-19T15:44:09.063Z,7.87
2022-12-19T15:46:35.856Z,9.50
2022-12-19T15:49:02.539Z,8.60
2022-12-19T15:51:29.103Z,9.77
2022-12-19T15:54:09.023Z,7.00
2022-12-19T15:56:47.539Z,12.83
2022-12-19T15:59:37.746Z,9.17
2022-12-19T16:02:16.254Z,8.00
2022-12-19T16:04:43.427Z,8.23
2022-12-19T16:07:15.495Z,7.47
2022-12-19T16:09:42.317Z,7.50
2022-12-19T16:12:13.917Z,8.33
2022-12-19T16:14:40.679Z,9.60
2022-12-19T16:17:13.962Z,7.43
2022-12-19T16:19:41.382Z,7.70
2022-12-19T16:22:34.444Z,7.97
2022-12-19T16:25:00.985Z,7.80
2022-12-19T16:27:31.294Z,9.03
2022-12-19T16:30:18.603Z,7.83
2022-12-19T16:32:45.976Z,7.67
2022-12-19T16:35:40.301Z,8.73
2022-12-19T16:38:08.682Z,6.57
2022-12-19T16:40:35.592Z,8.60
2022-12-19T16:43:10.739Z,7.60
2022-12-19T16:45:37.727Z,7.23
2022-12-19T16:48:17.119Z,7.83
2022-12-19T16:50:43.809Z,9.67
2022-12-19T16:53:10.461Z,7.60
2022-12-19T16:55:36.964Z,8.50
2022-12-19T16:58:03.911Z,7.07
2022-12-19T17:00:30.773Z,8.77
2022-12-19T17:03:07.727Z,9.50
2022-12-19T17:05:35.261Z,8.40
2022-12-19T17:08:01.891Z,7.37
2022-12-19T17:10:30.806Z,7.30
2022-12-19T17:12:58.336Z,10.13
2022-12-19T17:15:32.002Z,8.93
2022-12-19T17:18:00.939Z,8.53
2022-12-19T17:20:30.853Z,8.60
2022-12-19T17:22:57.813Z,9.63
2022-12-19T17:25:26.604Z,8.87
2022-12-19T17:27:54.602Z,7.73
2022-12-19T17:30:22.185Z,5.87
2022-12-19T17:32:51.620Z,8.10
2022-12-19T17:35:27.625Z,8.47
2022-12-19T17:37:56.610Z,7.07
2022-12-19T17:40:28.339Z,7.17
2022-12-19T17:42:55.669Z,6.40
2022-12-19T17:45:24.136Z,9.33
2022-12-19T17:47:54.120Z,8.77
2022-12-19T17:50:25.220Z,7.27
2022-12-19T17:52:51.981Z,6.80
2022-12-19T17:55:21.740Z,7.87
2022-12-19T17:57:48.621Z,8.60
2022-12-19T18:00:17.355Z,6.10
2022-12-19T18:02:45.356Z,6.13
2022-12-19T18:05:29.427Z,8.37
2022-12-19T18:07:56.217Z,6.93
2022-12-19T18:10:25.201Z,6.37
2022-12-19T18:12:52.397Z,6.93
2022-12-19T18:15:20.138Z,7.17
2022-12-19T18:17:48.073Z,6.07
2022-12-19T18:20:29.386Z,7.40
2022-12-19T18:22:58.828Z,8.77
2022-12-19T18:25:31.138Z,7.03
2022-12-19T18:27:58.196Z,6.40
2022-12-19T18:30:25.762Z,7.67
2022-12-19T18:32:59.862Z,6.20
2022-12-19T18:35:34.465Z,11.03
2022-12-19T18:38:02.643Z,7.20
2022-12-19T18:40:31.624Z,8.53
2022-12-19T18:42:58.881Z,5.27
2022-12-19T18:45:30.869Z,8.33
2022-12-19T18:48:00.547Z,8.27
2022-12-19T18:50:27.956Z,7.37
2022-12-19T18:52:54.929Z,8.17
2022-12-19T18:55:24.000Z,10.53
2022-12-19T18:57:51.026Z,6.80
2022-12-19T19:00:20.664Z,8.27
2022-12-19T19:02:50.708Z,6.30
2022-12-19T19:05:20.104Z,6.90
2022-12-19T19:07:47.489Z,6.17
2022-12-19T19:10:33.489Z,5.43
2022-12-19T19:13:05.154Z,4.70
2022-12-19T19:15:37.082Z,6.57
2022-12-19T19:18:05.778Z,6.50
2022-12-19T19:20:36.337Z,7.83
2022-12-19T19:23:04.604Z,8.17
2022-12-19T19:25:31.949Z,6.23
2022-12-19T19:27:58.786Z,7.07
2022-12-19T19:30:25.463Z,5.27
2022-12-19T19:32:55.783Z,6.87
2022-12-19T19:35:23.513Z,6.80
2022-12-19T19:37:52.042Z,6.37
2022-12-19T19:40:19.355Z,6.77
2022-12-19T19:42:46.258Z,6.30
2022-12-19T19:45:13.679Z,5.90
2022-12-19T19:47:42.569Z,5.50
2022-12-19T19:50:11.384Z,9.33
2022-12-19T19:52:41.327Z,7.33
2022-12-19T19:55:09.763Z,7.43
2022-12-19T19:57:37.024Z,6.57
2022-12-19T20:00:08.563Z,7.13
2022-12-19T20:02:35.686Z,8.03
2022-12-19T20:05:02.586Z,8.40
2022-12-19T20:07:29.140Z,6.07
2022-12-19T20:09:56.532Z,6.80
2022-12-19T20:12:24.082Z,4.73
2022-12-19T20:14:50.659Z,6.43
2022-12-19T20:17:17.285Z,6.67
2022-12-19T20:19:44.321Z,4.40
2022-12-19T20:22:10.899Z,5.77
2022-12-19T20:24:37.494Z,7.13
2022-12-19T20:27:04.069Z,4.53
2022-12-19T20:29:31.013Z,5.90
2022-12-19T20:31:57.800Z,6.17
2022-12-19T20:34:25.956Z,8.17
2022-12-19T20:36:52.666Z,6.37
2022-12-19T20:39:22.127Z,7.17
2022-12-19T20:41:52.767Z,6.50
2022-12-19T20:44:24.061Z,5.60
2022-12-19T20:46:52.192Z,7.97
2022-12-19T20:49:18.976Z,4.80
2022-12-19T20:51:47.801Z,4.80
2022-12-19T20:54:16.023Z,6.57
2022-12-19T20:56:42.673Z,6.53
2022-12-19T20:59:09.961Z,5.40
2022-12-19T21:01:36.735Z,5.60
2022-12-19T21:04:03.980Z,6.10
2022-12-19T21:06:31.021Z,5.37
2022-12-19T21:08:57.959Z,5.30
2022-12-19T21:11:26.409Z,5.30
2022-12-19T21:13:53.339Z,7.63
2022-12-19T21:16:22.187Z,6.00
2022-12-19T21:18:50.070Z,5.70
2022-12-19T21:21:26.432Z,7.07
2022-12-19T21:23:54.562Z,5.73
2022-12-19T21:26:22.171Z,5.53
2022-12-19T21:28:49.374Z,6.57
2022-12-19T21:31:19.361Z,5.43
2022-12-19T21:33:46.530Z,6.50
2022-12-19T21:36:18.946Z,5.80
2022-12-19T21:38:50.256Z,5.00
2022-12-19T21:41:18.725Z,5.27
2022-12-19T21:43:47.618Z,4.97
2022-12-19T21:46:16.479Z,4.87
2022-12-19T21:48:45.466Z,7.40
2022-12-19T21:51:13.078Z,4.53
2022-12-19T21:53:39.977Z,6.40
2022-12-19T21:56:31.288Z,5.07
2022-12-19T21:59:00.906Z,4.27
2022-12-19T22:01:28.496Z,7.93
2022-12-19T22:04:03.748Z,6.23
2022-12-19T22:06:31.821Z,5.10
2022-12-19T22:08:59.176Z,5.97
2022-12-19T22:11:26.503Z,4.77
2022-12-19T22:13:53.489Z,5.40
2022-12-19T22:16:20.384Z,6.27
2022-12-19T22:18:47.041Z,5.83
2022-12-19T22:21:15.039Z,5.20
2022-12-19T22:23:42.111Z,4.47
2022-12-19T22:26:17.699Z,5.40
2022-12-19T22:28:46.203Z,5.17
2022-12-19T22:31:30.804Z,4.93
2022-12-19T22:33:59.917Z,4.90
2022-12-19T22:36:28.966Z,4.23
2022-12-19T22:38:57.513Z,6.40
2022-12-19T22:41:24.752Z,4.20
2022-12-19T22:43:52.652Z,5.83
2022-12-19T22:46:21.967Z,4.90
2022-12-19T22:48:50.066Z,3.53
2022-12-19T22:51:18.082Z,6.40
2022-12-19T22:53:45.462Z,5.10
2022-12-19T22:56:17.734Z,6.67
2022-12-19T22:58:46.552Z,7.10
2022-12-19T23:01:26.644Z,5.50
2022-12-19T23:03:55.619Z,5.80
2022-12-19T23:06:25.428Z,6.50
2022-12-19T23:08:52.529Z,3.83
2022-12-19T23:11:25.400Z,5.07
2022-12-19T23:13:52.287Z,6.20
2022-12-19T23:16:19.112Z,5.70
2022-12-19T23:18:46.999Z,5.37
2022-12-19T23:21:15.829Z,4.67
2022-12-19T23:23:43.972Z,6.33
2022-12-19T23:26:16.324Z,3.33
2022-12-19T23:28:52.169Z,3.77
2022-12-19T23:31:18.858Z,6.70
2022-12-19T23:33:45.655Z,6.57
2022-12-19T23:36:12.286Z,5.03
2022-12-19T23:38:38.833Z,5.27
2022-12-19T23:41:08.611Z,4.17
2022-12-19T23:43:36.202Z,5.37
2022-12-19T23:46:14.088Z,3.67
2022-12-19T23:48:41.170Z,5.03
2022-12-19T23:51:11.236Z,3.67
2022-12-19T23:53:37.926Z,4.53
2022-12-19T23:56:06.881Z,3.10
2022-12-19T23:58:33.563Z,4.13
